Time;durP1;ratioP1;P1;durP2;ratioP2;P2;SDS_P1;SDS_P2;PMS_P1;PMS_P2;Temp;Humidity;BMP_temperature;BMP_pressure;BME280_temperature;BME280_humidity;BME280_pressure;Samples;Min_cycle;Max_cycle;Signal;HPM_P1;HPM_P2
2021/01/12 00:02:20;;;;;;;;;;;-2.10;99.90;;;-5.59;78.67;95861.78;10527038;28;2169;-80
2021/01/12 00:07:23;;;;;;;;;;;-4.40;99.90;;;-5.53;77.70;95859.28;10534390;28;1965;-81
2021/01/12 00:12:25;;;;;;;;;;;-3.00;99.90;;;-5.49;78.07;95850.09;10570292;28;2304;-79
2021/01/12 00:17:26;;;;;;;;;;;-3.60;99.90;;;-5.41;76.94;95843.16;10523875;28;2331;-81
2021/01/12 00:22:28;;;;;;;;;;;-4.30;99.90;;;-5.26;76.22;95846.69;10533080;28;2252;-80
2021/01/12 00:27:30;;;;;;;;;;;-4.30;99.90;;;-5.10;75.99;95820.34;10533303;28;2087;-80
2021/01/12 00:32:32;;;;;;;;;;;-4.20;99.90;;;-4.97;75.25;95815.34;10555747;28;2339;-80
2021/01/12 00:37:34;;;;;;;;;;;-2.10;99.90;;;-4.88;75.24;95817.91;10531939;28;2217;-78
2021/01/12 00:42:36;;;;;;;;;;;-3.20;99.90;;;-4.78;74.69;95824.53;10528343;28;2415;-80
2021/01/12 00:47:38;;;;;;;;;;;-3.70;99.90;;;-4.72;73.32;95839.56;10542420;28;2318;-78
2021/01/12 00:52:40;;;;;;;;;;;-3.60;99.90;;;-4.69;74.22;95851.53;10509210;28;2287;-79
2021/01/12 00:57:43;;;;;;;;;;;-3.10;99.90;;;-4.72;72.74;95841.38;10513630;28;2274;-80
2021/01/12 01:02:45;;;;;;;;;;;-2.70;99.90;;;-4.73;72.87;95831.88;10508821;28;2270;-80
2021/01/12 01:07:47;;;;;;;;;;;-2.60;99.90;;;-4.71;72.87;95835.13;10517059;28;2224;-79
2021/01/12 01:12:49;;;;;;;;;;;-3.70;99.90;;;-4.70;72.89;95821.84;10521552;28;2029;-78
2021/01/12 01:17:51;;;;;;;;;;;-3.60;99.90;;;-4.60;73.23;95823.41;10543379;28;2212;-77
2021/01/12 01:22:53;;;;;;;;;;;-1.90;99.90;;;-4.54;72.79;95826.13;10542978;28;2315;-82
2021/01/12 01:27:55;;;;;;;;;;;-3.10;99.90;;;-4.49;72.67;95839.53;10545981;28;2157;-79
2021/01/12 01:32:58;;;;;;;;;;;-3.40;99.90;;;-4.38;71.80;95844.34;10524900;28;2172;-80
2021/01/12 01:38:00;;;;;;;;;;;-2.50;99.90;;;-4.32;71.12;95834.13;10539654;28;2492;-79
2021/01/12 01:43:05;;;;;;;;;;;-3.30;99.90;;;-4.18;71.55;95835.94;10562516;28;2279;-81
2021/01/12 01:48:07;;;;;;;;;;;-3.10;99.90;;;-4.12;70.75;95825.53;10565356;28;2308;-81
2021/01/12 01:53:10;;;;;;;;;;;-3.10;99.90;;;-4.04;70.80;95843.00;10567964;28;2219;-80
2021/01/12 01:58:12;;;;;;;;;;;-2.90;99.90;;;-4.05;71.09;95837.94;10560802;28;2069;-81
2021/01/12 02:03:14;;;;;;;;;;;-1.50;99.90;;;-3.98;70.59;95850.16;10548044;28;2385;-80
2021/01/12 02:08:16;;;;;;;;;;;-2.90;99.90;;;-4.00;70.76;95828.53;10546291;28;2236;-79
2021/01/12 02:13:18;;;;;;;;;;;-2.90;99.90;;;-3.99;70.48;95826.72;10525451;28;2303;-80
2021/01/12 02:18:20;;;;;;;;;;;-2.20;99.90;;;-3.95;70.81;95817.47;10549031;28;2387;-80
2021/01/12 02:23:22;;;;;;;;;;;-1.20;99.90;;;-3.92;70.29;95806.59;10524625;28;2483;-80
2021/01/12 02:28:24;;;;;;;;;;;-2.80;99.90;;;-3.93;70.23;95774.28;10538406;28;1847;-79
2021/01/12 02:33:26;;;;;;;;;;;-1.60;99.90;;;-3.89;69.82;95774.72;10569959;28;1958;-81
2021/01/12 02:38:27;;;;;;;;;;;-1.30;99.90;;;-3.90;69.84;95768.66;10574548;28;2074;-81
2021/01/12 02:43:29;;;;;;;;;;;-1.80;99.90;;;-3.83;70.40;95756.41;10585699;28;2066;-81
2021/01/12 02:48:31;;;;;;;;;;;-2.70;99.90;;;-3.77;69.82;95759.31;10555822;28;2336;-81
2021/01/12 02:53:33;;;;;;;;;;;-0.80;99.90;;;-3.78;69.58;95762.94;10561909;28;2502;-80
2021/01/12 02:58:35;;;;;;;;;;;-0.90;99.90;;;-3.77;69.79;95764.56;10564766;28;2411;-80
2021/01/12 03:03:37;;;;;;;;;;;-2.70;99.90;;;-3.85;69.50;95763.66;10541618;28;1954;-80
2021/01/12 03:08:39;;;;;;;;;;;-1.90;99.90;;;-3.92;69.68;95760.16;10542177;28;2029;-82
2021/01/12 03:13:41;;;;;;;;;;;-2.00;99.90;;;-3.95;70.50;95747.38;10558698;28;2371;-81
2021/01/12 03:18:43;;;;;;;;;;;-2.70;99.90;;;-3.99;70.29;95750.56;10539423;28;1803;-81
2021/01/12 03:23:45;;;;;;;;;;;-2.30;99.90;;;-3.99;70.28;95727.75;10550433;28;2403;-80
2021/01/12 03:28:47;;;;;;;;;;;-1.50;99.90;;;-3.96;70.39;95719.50;10556506;28;2408;-80
2021/01/12 03:33:48;;;;;;;;;;;-1.30;99.90;;;-3.98;70.59;95705.75;10556120;28;1961;-82
2021/01/12 03:38:50;;;;;;;;;;;-2.80;99.90;;;-3.96;70.60;95711.63;10540875;28;2428;-81
2021/01/12 03:43:52;;;;;;;;;;;-1.90;99.90;;;-3.93;70.35;95702.56;10552470;28;2472;-82
2021/01/12 03:48:54;;;;;;;;;;;-1.60;99.90;;;-3.89;70.49;95693.31;10570332;28;2473;-80
2021/01/12 03:53:56;;;;;;;;;;;-1.40;99.90;;;-3.82;69.78;95687.16;10576998;28;2434;-82
2021/01/12 03:58:57;;;;;;;;;;;-2.10;99.90;;;-3.73;69.38;95684.41;10564237;28;2411;-80
2021/01/12 04:03:59;;;;;;;;;;;-1.30;99.90;;;-3.67;69.10;95667.88;10579065;28;1674;-81
2021/01/12 04:09:04;;;;;;;;;;;-2.60;99.90;;;-3.61;69.25;95675.81;10563768;28;1777;-81
2021/01/12 04:14:07;;;;;;;;;;;-2.50;99.90;;;-3.57;69.03;95671.81;10579397;27;2546;-80
2021/01/12 04:19:09;;;;;;;;;;;-1.30;99.90;;;-3.54;68.56;95646.97;10538621;28;2423;-79
2021/01/12 04:24:10;;;;;;;;;;;-1.80;99.90;;;-3.55;68.16;95642.75;10563180;28;2332;-80
2021/01/12 04:29:12;;;;;;;;;;;-2.20;99.90;;;-3.54;68.22;95624.16;10562857;28;2363;-81
2021/01/12 04:34:14;;;;;;;;;;;-1.70;99.90;;;-3.52;68.15;95621.31;10558908;28;2404;-82
2021/01/12 04:39:16;;;;;;;;;;;-2.50;99.30;;;-3.54;67.29;95610.19;10556841;28;2186;-81
2021/01/12 04:44:17;;;;;;;;;;;-2.40;98.60;;;-3.49;67.17;95599.94;10558671;28;2627;-82
2021/01/12 04:49:19;;;;;;;;;;;-2.40;98.30;;;-3.42;68.04;95600.78;10576109;28;2478;-81
2021/01/12 04:54:21;;;;;;;;;;;-1.80;99.10;;;-3.45;68.20;95602.97;10552952;28;2375;-82
2021/01/12 04:59:23;;;;;;;;;;;-2.20;99.20;;;-3.44;69.69;95602.78;10533878;28;2513;-81
2021/01/12 05:04:24;;;;;;;;;;;-2.30;99.90;;;-3.39;71.12;95595.16;10541459;28;2549;-81
2021/01/12 05:09:26;;;;;;;;;;;-2.20;99.90;;;-3.37;70.39;95585.28;10570325;28;2093;-80
2021/01/12 05:14:28;;;;;;;;;;;-2.30;99.90;;;-3.38;71.16;95594.13;10566540;28;2420;-79
2021/01/12 05:19:30;;;;;;;;;;;-2.30;99.90;;;-3.39;71.25;95584.63;10570616;28;2490;-81
2021/01/12 05:24:32;;;;;;;;;;;-2.20;99.90;;;-3.44;71.44;95580.94;10572019;28;1801;-78
2021/01/12 05:29:33;;;;;;;;;;;-0.70;99.90;;;-3.43;71.04;95585.22;10550732;28;2402;-79
2021/01/12 05:34:35;;;;;;;;;;;-2.30;99.90;;;-3.42;71.17;95578.97;10534247;28;2209;-80
2021/01/12 05:39:37;;;;;;;;;;;-2.30;99.90;;;-3.39;71.24;95560.97;10553985;28;2344;-81
2021/01/12 05:44:39;;;;;;;;;;;-2.30;99.90;;;-3.40;70.66;95556.72;10557143;28;2391;-81
2021/01/12 05:49:40;;;;;;;;;;;-2.30;99.90;;;-3.40;70.46;95556.72;10554594;28;2474;-81
2021/01/12 05:54:42;;;;;;;;;;;-2.20;99.90;;;-3.36;70.70;95531.69;10526438;28;2542;-78
2021/01/12 05:59:44;;;;;;;;;;;-0.80;99.90;;;-3.35;70.93;95533.31;10531823;28;2458;-79
2021/01/12 06:04:46;;;;;;;;;;;-2.20;99.90;;;-3.33;70.69;95528.66;10527552;28;2351;-80
2021/01/12 06:09:48;;;;;;;;;;;-2.20;99.90;;;-3.34;72.24;95532.31;10533159;28;2422;-79
2021/01/12 06:14:50;;;;;;;;;;;-1.10;99.90;;;-3.23;73.06;95519.66;10532611;28;2007;-81
2021/01/12 06:19:52;;;;;;;;;;;-1.30;99.90;;;-3.18;74.08;95533.00;10542440;28;2019;-80
2021/01/12 06:24:54;;;;;;;;;;;-2.10;99.90;;;-3.09;74.05;95521.31;10560643;28;2375;-81
2021/01/12 06:29:55;;;;;;;;;;;-1.70;99.90;;;-3.02;74.08;95496.69;10547208;28;2555;-80
2021/01/12 06:34:57;;;;;;;;;;;-1.00;99.90;;;-2.90;74.75;95486.41;10530762;28;2549;-81
2021/01/12 06:39:59;;;;;;;;;;;-1.90;99.90;;;-2.72;75.68;95473.53;10539708;28;2419;-80
2021/01/12 06:45:03;;;;;;;;;;;-1.70;99.90;;;-2.53;75.95;95471.97;10527655;28;2367;-80
2021/01/12 06:50:08;;;;;;;;;;;-0.10;99.90;;;-2.37;75.84;95462.06;10550932;28;2438;-79
2021/01/12 06:55:10;;;;;;;;;;;-1.40;99.90;;;-2.23;76.85;95463.69;10549567;28;2600;-81
2021/01/12 07:00:12;;;;;;;;;;;-1.20;99.90;;;-2.09;76.07;95475.88;10556773;28;2485;-80
2021/01/12 07:05:14;;;;;;;;;;;-1.10;99.90;;;-1.99;75.77;95464.91;10564791;28;2343;-78
2021/01/12 07:10:15;;;;;;;;;;;-1.00;99.90;;;-1.93;75.40;95456.19;10529962;28;2300;-80
2021/01/12 07:15:17;;;;;;;;;;;-0.10;99.90;;;-1.85;75.38;95457.81;10544190;28;2294;-79
2021/01/12 07:20:19;;;;;;;;;;;-0.50;99.90;;;-1.77;74.72;95436.53;10539169;28;2236;-79
2021/01/12 07:25:21;;;;;;;;;;;-0.70;99.90;;;-1.59;75.00;95454.31;10537684;28;2322;-79
2021/01/12 07:30:23;;;;;;;;;;;1.50;99.90;;;-1.51;74.75;95441.75;10539702;28;2361;-80
2021/01/12 07:35:25;;;;;;;;;;;-0.40;99.90;;;-1.41;74.06;95436.84;10552984;28;2272;-81
2021/01/12 07:40:29;;;;;;;;;;;0.90;99.90;;;-1.27;74.87;95432.38;10533731;28;2315;-84
2021/01/12 07:45:31;;;;;;;;;;;-0.30;99.90;;;-1.17;74.76;95437.19;10541272;28;2404;-83
2021/01/12 07:50:33;;;;;;;;;;;-0.20;99.90;;;-1.00;74.76;95411.16;10519390;28;1969;-84
2021/01/12 07:55:34;;;;;;;;;;;0.00;99.90;;;-0.83;73.99;95423.66;10518883;28;2249;-82
2021/01/12 08:00:36;;;;;;;;;;;1.10;99.90;;;-0.72;74.30;95416.88;10541504;28;2272;-82
2021/01/12 08:05:39;;;;;;;;;;;0.30;99.90;;;-0.56;74.29;95399.75;10516839;28;2330;-83
2021/01/12 08:10:40;;;;;;;;;;;0.40;99.90;;;-0.48;73.97;95394.19;10531668;28;2399;-83
2021/01/12 08:15:43;;;;;;;;;;;1.30;99.90;;;-0.36;73.03;95386.41;10518126;28;2366;-82
2021/01/12 08:20:45;;;;;;;;;;;1.10;99.90;;;-0.27;72.80;95379.81;10536901;28;2332;-84
2021/01/12 08:25:47;;;;;;;;;;;0.70;99.90;;;-0.24;72.58;95381.25;10536621;28;2374;-83
2021/01/12 08:30:49;;;;;;;;;;;1.80;99.90;;;-0.08;72.34;95378.84;10535471;28;2371;-83
2021/01/12 08:35:51;;;;;;;;;;;0.90;99.90;;;0.12;71.43;95372.56;10515047;28;2417;-83
2021/01/12 08:40:53;;;;;;;;;;;1.10;99.90;;;0.30;71.28;95369.94;10506688;28;2343;-83
2021/01/12 08:45:54;;;;;;;;;;;2.90;99.90;;;0.42;71.22;95357.63;10533890;28;2276;-84
2021/01/12 08:50:56;;;;;;;;;;;1.40;99.90;;;0.51;70.34;95358.97;10540475;28;2224;-84
2021/01/12 08:55:58;;;;;;;;;;;3.20;99.90;;;0.65;70.77;95345.59;10523596;28;1988;-81
2021/01/12 09:01:01;;;;;;;;;;;1.70;99.90;;;0.81;70.37;95329.88;10538286;28;2291;-80
2021/01/12 09:06:05;;;;;;;;;;;2.10;99.90;;;0.95;70.35;95330.53;10547858;28;2704;-80
2021/01/12 09:11:07;;;;;;;;;;;1.90;99.90;;;1.08;70.68;95326.88;10510300;28;2097;-82
2021/01/12 09:16:09;;;;;;;;;;;2.70;99.90;;;1.23;69.99;95331.78;10583550;27;2214;-80
2021/01/12 09:21:14;;;;;;;;;;;3.60;99.90;;;1.21;70.28;95318.78;10576841;28;2251;-79
2021/01/12 09:26:16;;;;;;;;;;;2.30;99.90;;;1.39;69.27;95320.53;10559475;28;1815;-83
2021/01/12 09:31:25;;;;;;;;;;;2.60;99.90;;;1.42;69.38;95312.16;10563336;28;2370;-79
2021/01/12 09:36:27;;;;;;;;;;;4.00;99.90;;;1.56;69.53;95291.56;10582479;28;1925;-79
2021/01/12 09:41:29;;;;;;;;;;;2.60;99.90;;;1.62;68.60;95293.28;10571405;28;2319;-82
2021/01/12 09:46:31;;;;;;;;;;;4.00;99.90;;;1.80;68.98;95287.09;10548980;28;2295;-83
2021/01/12 09:51:33;;;;;;;;;;;2.80;99.90;;;1.82;68.92;95287.66;10550157;28;2254;-82
2021/01/12 09:56:34;;;;;;;;;;;3.50;99.90;;;1.90;68.26;95287.28;10545835;28;1955;-82
2021/01/12 10:01:36;;;;;;;;;;;3.30;99.90;;;1.95;68.36;95276.81;10536415;28;2259;-82
2021/01/12 10:06:38;;;;;;;;;;;3.10;99.90;;;1.98;69.33;95286.16;10549124;28;2262;-81
2021/01/12 10:11:41;;;;;;;;;;;4.00;99.90;;;2.03;70.84;95276.44;10553563;28;2677;-81
2021/01/12 10:16:42;;;;;;;;;;;3.00;99.90;;;1.86;73.48;95279.00;10546490;28;2275;-80
2021/01/12 10:21:45;;;;;;;;;;;3.00;99.90;;;1.78;75.40;95270.59;10548842;28;2477;-81
2021/01/12 10:26:50;;;;;;;;;;;2.90;99.90;;;1.79;76.04;95269.56;10544302;28;2189;-82
2021/01/12 10:31:52;;;;;;;;;;;2.90;99.90;;;1.61;77.87;95266.00;10564638;28;2453;-82
2021/01/12 10:36:54;;;;;;;;;;;2.80;99.90;;;1.55;79.94;95264.25;10559128;28;2256;-81
2021/01/12 10:41:56;;;;;;;;;;;3.40;99.90;;;1.41;81.57;95241.69;10551823;28;2303;-83
2021/01/12 10:46:58;;;;;;;;;;;2.60;99.90;;;1.00;84.63;95232.72;10574969;28;2379;-81
2021/01/12 10:52:03;;;;;;;;;;;2.30;99.90;;;0.77;87.21;95238.78;10548667;28;2325;-82
2021/01/12 10:57:05;;;;;;;;;;;1.90;99.90;;;0.53;89.04;95208.78;10547198;28;2354;-83
2021/01/12 11:02:08;;;;;;;;;;;2.80;99.90;;;0.44;89.93;95211.97;10569472;28;2754;-81
2021/01/12 11:07:11;;;;;;;;;;;1.60;99.90;;;0.35;90.40;95198.25;10568869;28;2230;-80
2021/01/12 11:12:13;;;;;;;;;;;1.50;99.90;;;0.41;90.15;95176.22;10563362;28;2627;-83
2021/01/12 11:17:15;;;;;;;;;;;1.40;99.90;;;0.48;90.87;95162.91;10568266;28;2280;-81
2021/01/12 11:22:26;;;;;;;;;;;2.90;99.90;;;0.54;90.44;95165.44;10532874;28;2319;-83
2021/01/12 11:27:30;;;;;;;;;;;3.10;99.90;;;0.57;90.05;95147.50;10562703;28;2748;-81
2021/01/12 11:32:32;;;;;;;;;;;1.60;99.90;;;0.57;90.33;95144.84;10546689;28;2558;-84
2021/01/12 11:37:38;;;;;;;;;;;3.70;99.90;;;0.61;90.48;95128.31;10544919;28;2739;-82
2021/01/12 11:42:41;;;;;;;;;;;1.60;99.90;;;0.68;90.45;95117.63;10540298;28;2379;-83
2021/01/12 11:47:46;;;;;;;;;;;1.70;99.90;;;0.70;89.74;95099.69;10554248;28;2319;-82
2021/01/12 11:52:48;;;;;;;;;;;1.70;99.90;;;0.68;89.71;95092.00;10549610;28;2292;-83
2021/01/12 11:57:51;;;;;;;;;;;1.70;99.90;;;0.71;89.81;95085.44;10545802;28;2307;-82
2021/01/12 12:02:53;;;;;;;;;;;3.70;99.90;;;0.69;90.09;95071.63;10542578;28;2279;-83
2021/01/12 12:07:55;;;;;;;;;;;1.80;99.90;;;0.68;90.01;95075.31;10512379;28;2378;-83
2021/01/12 12:12:56;;;;;;;;;;;3.30;99.90;;;0.75;89.58;95060.13;10551957;28;2403;-85
2021/01/12 12:17:58;;;;;;;;;;;1.70;99.90;;;0.82;89.80;95071.41;10542037;28;2290;-85
2021/01/12 12:23:03;;;;;;;;;;;1.80;99.90;;;0.76;90.01;95056.44;10540815;28;2032;-85
2021/01/12 12:28:05;;;;;;;;;;;1.80;99.90;;;0.81;89.51;95046.00;10548935;28;2201;-84
2021/01/12 12:33:07;;;;;;;;;;;3.60;99.90;;;0.87;89.45;95060.94;10560185;28;2054;-82
2021/01/12 12:38:08;;;;;;;;;;;2.50;99.90;;;0.92;89.48;95045.19;10537330;28;2240;-82
2021/01/12 12:43:10;;;;;;;;;;;3.00;99.90;;;0.94;89.31;95037.81;10531904;28;1985;-82
2021/01/12 12:48:13;;;;;;;;;;;3.80;99.90;;;0.93;89.50;95020.31;10524658;28;2287;-83
2021/01/12 12:53:19;;;;;;;;;;;2.90;99.90;;;0.94;89.35;95007.91;10535796;28;2703;-82
2021/01/12 12:58:22;;;;;;;;;;;2.30;99.90;;;0.98;88.81;95033.69;10532040;28;2294;-83
2021/01/12 13:03:24;;;;;;;;;;;4.00;99.90;;;0.99;88.29;95011.47;10556517;28;1534;-83
2021/01/12 13:08:28;;;;;;;;;;;2.00;99.90;;;1.01;88.32;95012.03;10564146;28;2115;-82
2021/01/12 13:13:31;;;;;;;;;;;2.30;99.90;;;0.99;88.32;95008.00;10554424;28;2431;-84
2021/01/12 13:18:39;;;;;;;;;;;1.90;99.90;;;0.96;88.50;94996.06;10563391;28;2620;-85
2021/01/12 13:23:44;;;;;;;;;;;2.00;99.90;;;0.97;88.66;94988.94;10568733;28;1517;-84
2021/01/12 13:28:46;;;;;;;;;;;3.60;99.90;;;0.95;88.50;94975.91;10558628;28;1931;-82
2021/01/12 13:33:50;;;;;;;;;;;2.20;99.90;;;1.00;88.21;94978.66;10610260;27;1955;-81
2021/01/12 13:38:53;;;;;;;;;;;3.90;99.90;;;0.97;88.00;94981.78;10564250;28;1657;-84
2021/01/12 13:43:55;;;;;;;;;;;3.00;99.90;;;0.95;88.32;94969.81;10565591;28;1647;-83
2021/01/12 13:48:57;;;;;;;;;;;3.40;99.90;;;0.90;88.55;94967.88;10558495;28;2475;-82
2021/01/12 13:54:00;;;;;;;;;;;3.70;99.90;;;0.95;88.73;94970.63;10541611;28;1918;-82
2021/01/12 13:59:05;;;;;;;;;;;3.10;99.90;;;0.89;89.11;94968.09;10543805;28;1452;-83
2021/01/12 14:04:07;;;;;;;;;;;2.70;99.90;;;0.84;89.64;94968.81;10530858;28;2380;-82
2021/01/12 14:09:09;;;;;;;;;;;3.60;99.90;;;0.79;89.30;94968.69;10539511;28;2389;-85
2021/01/12 14:14:12;;;;;;;;;;;4.50;99.90;;;0.74;90.43;94976.53;10526804;28;1886;-82
2021/01/12 14:19:15;;;;;;;;;;;3.60;99.90;;;0.65;90.93;94981.38;10565844;28;2652;-83
2021/01/12 14:24:23;;;;;;;;;;;1.90;99.90;;;0.64;91.07;94977.13;10531742;28;2286;-82
2021/01/12 14:29:34;;;;;;;;;;;2.80;99.90;;;0.57;91.40;94967.66;10543737;28;2295;-83
2021/01/12 14:34:37;;;;;;;;;;;1.60;99.90;;;0.43;92.03;94964.44;10563550;28;2409;-83
2021/01/12 14:39:39;;;;;;;;;;;1.50;99.90;;;0.42;92.58;94960.19;10567880;28;2299;-84
2021/01/12 14:44:41;;;;;;;;;;;2.90;99.90;;;0.48;92.94;94956.66;10555599;28;2260;-83
2021/01/12 14:49:43;;;;;;;;;;;3.30;99.90;;;0.53;92.92;94968.13;10535935;28;1676;-84
2021/01/12 14:54:45;;;;;;;;;;;1.60;99.90;;;0.56;93.45;94955.47;10572927;28;2208;-83
2021/01/12 14:59:52;;;;;;;;;;;1.60;99.90;;;0.65;92.94;94956.75;10557484;28;1677;-83
2021/01/12 15:05:03;;;;;;;;;;;1.70;99.90;;;0.67;92.80;94957.31;10566772;28;2120;-85
2021/01/12 15:10:05;;;;;;;;;;;1.90;99.90;;;0.65;92.81;94964.69;10545836;28;2259;-84
2021/01/12 15:15:07;;;;;;;;;;;2.40;99.90;;;0.65;92.67;94962.06;10534911;28;2033;-81
2021/01/12 15:20:09;;;;;;;;;;;3.20;99.90;;;0.49;92.73;94961.69;10541245;28;2144;-83
2021/01/12 15:25:11;;;;;;;;;;;1.60;99.90;;;0.43;93.35;94952.03;10546247;28;2540;-82
2021/01/12 15:30:13;;;;;;;;;;;1.50;99.90;;;0.53;93.28;94967.34;10554180;28;1627;-83
2021/01/12 15:35:15;;;;;;;;;;;1.90;99.90;;;0.54;93.34;94967.09;10536416;28;1914;-84
2021/01/12 15:40:17;;;;;;;;;;;3.50;99.90;;;0.65;93.25;94959.41;10554699;28;2128;-86
2021/01/12 15:45:19;;;;;;;;;;;1.60;99.90;;;0.71;93.16;94958.47;10524913;28;1784;-83
2021/01/12 15:50:22;;;;;;;;;;;1.70;99.90;;;0.79;92.38;94936.94;10569654;28;2304;-83
2021/01/12 15:55:23;;;;;;;;;;;1.80;99.90;;;1.49;91.00;94960.56;10571823;28;2271;-82
2021/01/12 16:00:25;;;;;;;;;;;2.30;99.90;;;1.66;89.66;94955.34;10540064;28;2295;-81
2021/01/12 16:05:28;;;;;;;;;;;2.70;99.90;;;1.12;90.52;94961.97;10532015;28;2431;-83
2021/01/12 16:10:30;;;;;;;;;;;2.40;99.90;;;0.90;91.45;94962.59;10533218;28;1764;-82
2021/01/12 16:15:31;;;;;;;;;;;2.10;99.90;;;0.80;92.46;94952.59;10538576;28;1989;-82
2021/01/12 16:20:34;;;;;;;;;;;3.80;99.90;;;0.81;92.63;94964.78;10535926;28;2315;-78
2021/01/12 16:25:46;;;;;;;;;;;1.90;99.90;;;0.85;92.12;94954.53;10544334;28;2281;-82
2021/01/12 16:30:49;;;;;;;;;;;2.60;99.90;;;0.90;92.45;94967.88;10552098;28;1322;-81
2021/01/12 16:35:51;;;;;;;;;;;1.90;99.90;;;0.98;91.69;94964.88;10516690;28;1993;-84
2021/01/12 16:40:53;;;;;;;;;;;2.00;99.90;;;1.01;91.37;94958.28;10553243;28;2414;-82
2021/01/12 16:45:56;;;;;;;;;;;2.00;99.90;;;0.97;92.15;94957.97;10530465;28;1717;-81
2021/01/12 16:50:58;;;;;;;;;;;2.00;99.90;;;1.00;91.86;94954.03;10525339;28;1584;-81
2021/01/12 16:56:03;;;;;;;;;;;3.30;99.90;;;0.96;91.89;94966.97;10521789;28;1989;-81
2021/01/12 17:01:05;;;;;;;;;;;1.90;99.90;;;0.90;92.38;94970.53;10531595;28;1606;-82
2021/01/12 17:06:08;;;;;;;;;;;3.60;99.90;;;0.85;92.56;94970.41;10562255;28;1512;-81
2021/01/12 17:11:10;;;;;;;;;;;3.20;99.90;;;0.88;92.68;94980.53;10544397;28;1577;-80
2021/01/12 17:16:12;;;;;;;;;;;3.70;99.90;;;0.89;93.43;94982.16;10533293;28;1981;-82
2021/01/12 17:21:14;;;;;;;;;;;3.30;99.90;;;0.95;92.39;94986.50;10554546;28;1373;-83
2021/01/12 17:26:16;;;;;;;;;;;4.80;99.90;;;0.98;92.73;94996.63;10546079;28;1294;-83
2021/01/12 17:31:19;;;;;;;;;;;3.50;99.90;;;1.08;91.49;94996.03;10577662;28;1169;-82
2021/01/12 17:36:21;;;;;;;;;;;3.70;99.90;;;1.04;91.93;94989.59;10558045;28;1941;-83
2021/01/12 17:41:26;;;;;;;;;;;2.80;99.90;;;1.02;92.38;95004.91;10549893;28;1573;-79
2021/01/12 17:46:31;;;;;;;;;;;2.00;99.90;;;1.02;92.30;94992.50;10559108;28;1240;-81
2021/01/12 17:51:35;;;;;;;;;;;4.40;99.90;;;1.01;92.38;94996.16;10526527;28;1401;-80
2021/01/12 17:56:45;;;;;;;;;;;3.10;99.90;;;1.05;92.21;95007.88;10528559;28;1971;-81
2021/01/12 18:01:51;;;;;;;;;;;2.10;99.90;;;1.08;91.74;95002.16;10522847;28;1279;-81
2021/01/12 18:06:56;;;;;;;;;;;3.60;99.90;;;1.12;91.15;94999.03;10555134;28;2686;-79
2021/01/12 18:12:02;;;;;;;;;;;4.00;99.90;;;1.08;91.37;94991.56;10551680;28;1935;-80
2021/01/12 18:17:08;;;;;;;;;;;3.10;99.90;;;1.14;91.08;95003.03;10556453;28;1899;-82
2021/01/12 18:22:12;;;;;;;;;;;2.50;99.90;;;1.12;91.33;95009.59;10539320;28;1353;-81
2021/01/12 18:27:15;;;;;;;;;;;3.60;99.90;;;1.10;91.83;95027.56;10542864;28;2333;-83
2021/01/12 18:32:21;;;;;;;;;;;3.50;99.90;;;1.11;91.44;95005.34;10537207;28;1673;-81
2021/01/12 18:37:24;;;;;;;;;;;2.10;99.90;;;1.17;91.16;95012.38;10549917;28;1957;-80
2021/01/12 18:42:33;;;;;;;;;;;2.50;99.90;;;1.14;90.92;95036.63;10535187;28;1973;-81
2021/01/12 18:47:39;;;;;;;;;;;2.60;99.90;;;1.15;91.70;95043.56;10575109;28;2199;-81
2021/01/12 18:52:49;;;;;;;;;;;3.20;99.90;;;1.13;91.83;95037.69;10536211;28;2271;-82
2021/01/12 18:57:51;;;;;;;;;;;3.10;99.90;;;1.11;91.59;95042.41;10533319;28;2271;-80
2021/01/12 19:03:03;;;;;;;;;;;3.00;99.90;;;1.11;91.79;95074.97;10545569;28;2388;-81
2021/01/12 19:08:11;;;;;;;;;;;2.10;99.90;;;1.16;90.79;95063.72;10553384;28;1701;-81
2021/01/12 19:13:13;;;;;;;;;;;3.70;99.90;;;1.16;91.03;95063.72;10549040;28;1975;-82
2021/01/12 19:18:15;;;;;;;;;;;3.00;99.90;;;1.15;90.61;95070.03;10557296;28;2009;-80
2021/01/12 19:23:18;;;;;;;;;;;3.50;99.90;;;1.12;91.45;95057.25;10553342;28;1586;-80
2021/01/12 19:28:20;;;;;;;;;;;4.00;99.90;;;1.12;91.63;95070.50;10558103;28;1255;-81
2021/01/12 19:33:22;;;;;;;;;;;2.20;99.90;;;1.17;91.30;95076.69;10568357;28;1953;-82
2021/01/12 19:38:25;;;;;;;;;;;2.20;99.90;;;1.14;91.17;95071.06;10570203;28;2144;-80
2021/01/12 19:43:28;;;;;;;;;;;2.20;99.90;;;1.12;91.44;95083.72;10546115;28;2346;-80
2021/01/12 19:48:30;;;;;;;;;;;2.20;99.90;;;1.12;91.77;95091.66;10533220;28;1362;-79
2021/01/12 19:53:32;;;;;;;;;;;4.20;99.90;;;1.16;91.48;95087.53;10556888;28;1969;-81
2021/01/12 19:58:34;;;;;;;;;;;2.20;99.90;;;1.08;91.91;95104.53;10535350;28;1539;-81
2021/01/12 20:03:42;;;;;;;;;;;2.20;99.90;;;1.02;92.61;95108.94;10562735;28;1135;-79
2021/01/12 20:08:44;;;;;;;;;;;2.40;99.90;;;0.96;93.09;95109.84;10538843;28;1410;-80
2021/01/12 20:13:46;;;;;;;;;;;2.00;99.90;;;0.91;92.96;95111.56;10547087;28;1890;-80
2021/01/12 20:18:49;;;;;;;;;;;3.00;99.90;;;0.90;93.57;95118.72;10533697;28;1304;-80
2021/01/12 20:23:52;;;;;;;;;;;2.00;99.90;;;0.84;93.64;95116.97;10579626;28;1262;-80
2021/01/12 20:28:54;;;;;;;;;;;2.00;99.90;;;0.83;93.57;95133.91;10537751;28;1945;-82
2021/01/12 20:33:56;;;;;;;;;;;2.10;99.90;;;0.80;93.78;95136.97;10562921;28;1901;-81
2021/01/12 20:38:57;;;;;;;;;;;1.90;99.90;;;0.81;94.01;95146.53;10566177;28;1275;-78
2021/01/12 20:43:59;;;;;;;;;;;1.90;99.90;;;0.89;93.93;95156.78;10539750;28;1443;-81
2021/01/12 20:49:04;;;;;;;;;;;1.90;99.90;;;0.87;93.78;95161.50;10556260;28;1584;-81
2021/01/12 20:54:06;;;;;;;;;;;2.00;99.90;;;0.88;93.75;95165.75;10543297;28;1910;-79
2021/01/12 20:59:08;;;;;;;;;;;1.90;99.90;;;0.82;94.11;95169.28;10524674;28;1324;-80
2021/01/12 21:04:11;;;;;;;;;;;4.30;99.90;;;0.77;94.02;95170.00;10527068;28;1554;-82
2021/01/12 21:09:14;;;;;;;;;;;1.80;99.90;;;0.74;93.95;95185.50;10555383;28;1630;-80
2021/01/12 21:14:16;;;;;;;;;;;1.90;99.90;;;0.73;93.82;95190.00;10558625;28;1898;-81
2021/01/12 21:19:21;;;;;;;;;;;2.40;99.90;;;0.67;94.34;95190.09;10578394;28;1377;-81
2021/01/12 21:24:23;;;;;;;;;;;2.80;99.90;;;0.65;94.34;95208.03;10555194;28;1568;-80
2021/01/12 21:29:25;;;;;;;;;;;1.80;99.90;;;0.67;94.56;95212.06;10561407;28;1306;-81
2021/01/12 21:34:27;;;;;;;;;;;1.80;99.90;;;0.63;94.44;95223.31;10559097;28;1969;-79
2021/01/12 21:39:29;;;;;;;;;;;3.60;99.90;;;0.64;94.64;95215.16;10562045;28;1625;-81
2021/01/12 21:44:30;;;;;;;;;;;1.70;99.90;;;0.64;94.49;95228.41;10564055;28;1415;-83
2021/01/12 21:49:32;;;;;;;;;;;1.70;99.90;;;0.62;94.41;95233.09;10547692;28;1436;-82
2021/01/12 21:54:34;;;;;;;;;;;1.70;99.90;;;0.56;94.65;95256.97;10562265;28;2299;-81
2021/01/12 21:59:48;;;;;;;;;;;1.60;99.90;;;0.51;94.66;95261.13;10556917;28;2278;-81
2021/01/12 22:04:50;;;;;;;;;;;2.20;99.90;;;0.40;94.78;95290.94;10542506;28;2251;-81
2021/01/12 22:09:52;;;;;;;;;;;1.50;99.90;;;-0.06;94.46;95292.25;10559937;28;1599;-84
2021/01/12 22:14:54;;;;;;;;;;;3.10;99.90;;;-0.17;95.34;95298.25;10546324;28;2409;-84
2021/01/12 22:19:57;;;;;;;;;;;0.90;99.90;;;-0.28;95.12;95314.81;10537915;28;1284;-81
2021/01/12 22:25:03;;;;;;;;;;;1.40;99.90;;;-0.26;95.81;95312.75;10535368;28;1669;-80
2021/01/12 22:30:05;;;;;;;;;;;1.00;99.90;;;-0.26;95.55;95323.31;10572862;28;2406;-82
2021/01/12 22:35:07;;;;;;;;;;;2.50;99.90;;;-0.34;96.16;95332.34;10536592;28;1910;-81
2021/01/12 22:40:09;;;;;;;;;;;1.80;99.90;;;-0.38;96.27;95331.16;10543247;28;1437;-82
2021/01/12 22:45:11;;;;;;;;;;;0.70;99.90;;;-0.37;96.53;95339.91;10536706;28;1503;-81
2021/01/12 22:50:12;;;;;;;;;;;0.70;99.90;;;-0.38;96.55;95351.47;10541539;28;2093;-80
2021/01/12 22:55:14;;;;;;;;;;;0.70;99.90;;;-0.37;95.76;95348.63;10539743;28;2355;-81
2021/01/12 23:00:17;;;;;;;;;;;2.80;99.90;;;-0.38;95.83;95359.38;10527047;28;2344;-82
2021/01/12 23:05:19;;;;;;;;;;;2.60;99.90;;;-0.32;95.16;95355.88;10526044;28;2040;-80
2021/01/12 23:10:20;;;;;;;;;;;1.00;99.90;;;-0.31;94.55;95374.19;10556646;28;1870;-82
2021/01/12 23:15:23;;;;;;;;;;;0.80;99.90;;;-0.31;93.92;95382.09;10543559;28;2059;-81
2021/01/12 23:20:25;;;;;;;;;;;0.70;99.90;;;-0.35;93.21;95398.59;10551335;28;2375;-79
2021/01/12 23:25:27;;;;;;;;;;;1.00;99.90;;;-0.41;92.81;95389.69;10531584;28;2338;-78
2021/01/12 23:30:28;;;;;;;;;;;1.40;99.90;;;-0.40;93.25;95409.78;10559709;28;2244;-79